Chattaroy, Washington
Current Conditions -  °F | °C
As of 9:16 AM on Wednesday 26 Nov 2014 (Local Time) from KDEW Reporting Station
Haze Haze  
Wind Chill:   Ceiling: 400
Heat Index:   Visibility: 1mi
Dew Point:   Wind: 0mph
Humidity: 100%   Direction: NA
Pressure: 30.18"   Gusts: NA
Location:  47.89°N, 117.36°W
Report Text: KDEW 261716Z AUTO 00000KT 1SM BR OVC004 01/01 A3018 RMK AO2 T00060006
Loading
Personal Weather Stations






























Interactive Weather Map New forecast layout! Learn more

10-Day Weather Forecast

Advertisements
Track Severe Weather on mobile